createdAt,value
2022-08-26T04:04:10.515Z,17.33
2022-08-26T04:08:28.149Z,17.28
2022-08-26T04:12:39.792Z,17.28
2022-08-26T04:16:52.896Z,17.22
2022-08-26T04:21:07.978Z,17.10
2022-08-26T04:25:20.658Z,17.12
2022-08-26T04:29:32.435Z,17.10
2022-08-26T04:33:46.532Z,17.07
2022-08-26T04:37:58.876Z,17.08
2022-08-26T04:42:10.391Z,17.13
2022-08-26T04:46:24.264Z,17.16
2022-08-26T04:50:35.866Z,17.15
2022-08-26T04:54:47.512Z,17.21
2022-08-26T04:59:00.407Z,17.17
2022-08-26T05:03:11.967Z,17.21
2022-08-26T05:07:23.542Z,17.26
2022-08-26T05:11:36.608Z,17.33
2022-08-26T05:15:59.143Z,17.38
2022-08-26T05:20:13.351Z,17.41
2022-08-26T05:24:27.372Z,17.46
2022-08-26T05:28:41.799Z,17.56
2022-08-26T05:32:55.431Z,17.66
2022-08-26T05:37:07.038Z,17.74
2022-08-26T05:41:23.639Z,17.69
2022-08-26T05:45:35.219Z,17.77
2022-08-26T05:49:51.462Z,17.83
2022-08-26T05:54:03.986Z,17.91
2022-08-26T05:58:17.508Z,17.92
2022-08-26T06:02:29.163Z,18.10
2022-08-26T06:06:41.642Z,18.24
2022-08-26T06:10:59.049Z,18.36
2022-08-26T06:15:11.259Z,18.52
2022-08-26T06:19:22.854Z,18.59
2022-08-26T06:23:52.957Z,18.75
2022-08-26T06:28:05.236Z,19.19
2022-08-26T06:32:17.303Z,21.90
2022-08-26T06:36:30.711Z,25.38
2022-08-26T06:40:48.725Z,26.96
2022-08-26T06:45:01.236Z,28.58
2022-08-26T06:49:13.199Z,29.38
2022-08-26T06:53:24.797Z,28.00
2022-08-26T06:57:37.660Z,28.05
2022-08-26T07:01:52.229Z,27.38
2022-08-26T07:06:04.180Z,27.47
2022-08-26T07:10:16.807Z,27.12
2022-08-26T07:14:28.371Z,26.72
2022-08-26T07:18:42.170Z,26.59
2022-08-26T07:22:58.773Z,26.46
2022-08-26T07:27:15.431Z,26.46
2022-08-26T07:31:32.512Z,26.44
2022-08-26T07:35:46.207Z,26.58
2022-08-26T07:39:58.055Z,26.71
2022-08-26T07:44:10.134Z,26.92
2022-08-26T07:48:22.067Z,27.05
2022-08-26T07:52:33.712Z,26.73
2022-08-26T07:56:46.079Z,26.64
2022-08-26T08:00:57.803Z,26.19
2022-08-26T08:05:16.051Z,25.97
2022-08-26T08:09:28.821Z,26.06
2022-08-26T08:13:40.763Z,26.30
2022-08-26T08:17:52.561Z,26.60
2022-08-26T08:22:05.202Z,26.64
2022-08-26T08:26:28.780Z,26.74
2022-08-26T08:30:41.356Z,26.85
2022-08-26T08:34:52.994Z,26.75
2022-08-26T08:39:04.557Z,26.94
2022-08-26T08:43:42.147Z,26.85
2022-08-26T08:47:57.810Z,26.90
2022-08-26T08:52:31.099Z,27.00
2022-08-26T08:56:59.859Z,27.07
2022-08-26T09:01:27.942Z,27.14
2022-08-26T09:05:48.526Z,27.27
2022-08-26T09:10:05.594Z,27.36
2022-08-26T09:14:17.643Z,27.47
2022-08-26T09:19:04.726Z,27.71
2022-08-26T09:23:17.133Z,27.61
2022-08-26T09:27:44.159Z,27.76
2022-08-26T09:32:35.131Z,27.79
2022-08-26T09:37:00.347Z,27.93
2022-08-26T09:41:31.986Z,28.00
2022-08-26T09:45:50.125Z,28.14
2022-08-26T09:50:12.490Z,28.27
2022-08-26T09:54:30.395Z,28.28
2022-08-26T09:58:47.218Z,28.50
2022-08-26T10:03:00.635Z,28.73
2022-08-26T10:07:37.538Z,28.79
2022-08-26T10:12:00.135Z,28.94
2022-08-26T10:16:20.347Z,29.08
2022-08-26T10:20:40.959Z,29.39
2022-08-26T10:25:03.766Z,29.61
2022-08-26T10:29:29.531Z,29.24
2022-08-26T10:33:42.211Z,29.19
2022-08-26T10:38:00.866Z,29.17
2022-08-26T10:42:42.567Z,29.21
2022-08-26T10:47:01.457Z,29.41
2022-08-26T10:51:25.076Z,29.39
2022-08-26T10:56:05.378Z,29.51
2022-08-26T11:00:40.521Z,29.36
2022-08-26T11:05:00.848Z,29.62
2022-08-26T11:09:45.838Z,29.81
2022-08-26T11:13:57.665Z,29.93
2022-08-26T11:18:12.084Z,30.01
2022-08-26T11:22:47.353Z,30.08
2022-08-26T11:26:59.700Z,30.12
2022-08-26T11:31:40.097Z,29.99
2022-08-26T11:35:52.193Z,29.70
2022-08-26T11:40:08.791Z,29.36
2022-08-26T11:44:25.693Z,29.32
2022-08-26T11:48:42.921Z,29.36
2022-08-26T11:53:02.005Z,29.53
2022-08-26T11:57:14.015Z,30.00
2022-08-26T12:01:42.846Z,29.90
2022-08-26T12:05:55.097Z,29.84
2022-08-26T12:10:10.599Z,29.78
2022-08-26T12:14:25.311Z,29.70
2022-08-26T12:18:39.259Z,29.75
2022-08-26T12:22:50.872Z,29.80
2022-08-26T12:27:21.448Z,29.73
2022-08-26T12:31:39.991Z,29.76
2022-08-26T12:35:56.720Z,29.77
2022-08-26T12:40:30.448Z,29.80
2022-08-26T12:44:54.324Z,29.75
2022-08-26T12:49:06.194Z,29.78
2022-08-26T12:53:23.533Z,29.81
2022-08-26T12:57:37.474Z,29.63
2022-08-26T13:01:49.531Z,30.00
2022-08-26T13:06:22.472Z,30.50
2022-08-26T13:10:38.018Z,31.03
2022-08-26T13:14:50.793Z,31.32
2022-08-26T13:19:06.217Z,31.30
2022-08-26T13:23:23.686Z,31.00
2022-08-26T13:27:35.265Z,30.94
2022-08-26T13:31:49.484Z,30.82
2022-08-26T13:36:01.096Z,30.84
2022-08-26T13:40:13.182Z,30.85
2022-08-26T13:44:24.786Z,30.93
2022-08-26T13:48:36.647Z,30.90
2022-08-26T13:52:51.482Z,31.08
2022-08-26T13:57:03.271Z,31.18
2022-08-26T14:01:16.044Z,31.34
2022-08-26T14:05:28.184Z,31.35
2022-08-26T14:09:39.772Z,31.19
2022-08-26T14:13:51.333Z,30.79
2022-08-26T14:18:04.481Z,31.01
2022-08-26T14:22:21.791Z,31.13
2022-08-26T14:26:33.410Z,31.00
2022-08-26T14:30:50.411Z,30.83
2022-08-26T14:35:02.187Z,30.67
2022-08-26T14:39:14.553Z,30.88
2022-08-26T14:43:26.224Z,31.16
2022-08-26T14:47:37.742Z,31.32
2022-08-26T14:51:49.813Z,31.32
2022-08-26T14:56:01.443Z,31.09
2022-08-26T15:00:13.378Z,30.47
2022-08-26T15:04:25.196Z,30.26
2022-08-26T15:08:37.269Z,29.88
2022-08-26T15:12:49.549Z,29.57
2022-08-26T15:17:01.142Z,29.42
2022-08-26T15:21:12.695Z,27.63
2022-08-26T15:25:24.296Z,26.00
2022-08-26T15:29:36.251Z,22.93
2022-08-26T15:33:48.447Z,20.35
2022-08-26T15:38:00.174Z,17.96
2022-08-26T15:42:11.998Z,18.08
2022-08-26T15:46:24.433Z,18.23
2022-08-26T15:50:36.283Z,18.24
2022-08-26T15:54:47.785Z,18.60
2022-08-26T15:59:02.595Z,18.91
2022-08-26T16:03:14.579Z,19.04
2022-08-26T16:07:26.371Z,19.26
2022-08-26T16:11:37.967Z,19.23
2022-08-26T16:15:49.568Z,19.31
2022-08-26T16:20:01.164Z,19.69
2022-08-26T16:24:12.822Z,19.76
2022-08-26T16:28:25.058Z,19.91
2022-08-26T16:32:37.917Z,20.04
2022-08-26T16:36:49.499Z,20.25
2022-08-26T16:41:01.365Z,20.25
2022-08-26T16:45:12.895Z,20.32
2022-08-26T16:49:24.416Z,20.35
2022-08-26T16:53:38.075Z,20.44
2022-08-26T16:57:51.093Z,20.18
2022-08-26T17:02:02.967Z,20.31
2022-08-26T17:06:14.539Z,20.29
2022-08-26T17:10:28.766Z,20.13
2022-08-26T17:14:40.351Z,20.15
2022-08-26T17:18:51.986Z,20.33
2022-08-26T17:23:03.634Z,20.32
2022-08-26T17:27:15.293Z,20.20
2022-08-26T17:31:26.934Z,20.22
2022-08-26T17:35:38.599Z,20.30
2022-08-26T17:39:50.178Z,20.28
2022-08-26T17:44:01.748Z,20.17
2022-08-26T17:48:13.344Z,20.04
2022-08-26T17:52:24.882Z,19.97
2022-08-26T17:56:36.465Z,19.94
2022-08-26T18:00:51.278Z,19.86
2022-08-26T18:05:02.894Z,19.88
2022-08-26T18:09:14.490Z,19.83
2022-08-26T18:13:26.083Z,19.66
2022-08-26T18:17:41.592Z,19.66
2022-08-26T18:21:53.302Z,19.49
2022-08-26T18:26:04.903Z,19.31
2022-08-26T18:30:20.699Z,19.50
2022-08-26T18:34:33.968Z,19.54
2022-08-26T18:38:47.221Z,19.65
2022-08-26T18:43:02.395Z,19.61
2022-08-26T18:47:14.751Z,19.68
2022-08-26T18:51:31.672Z,19.76
2022-08-26T18:55:43.205Z,19.75
2022-08-26T18:59:55.481Z,19.75
2022-08-26T19:04:08.998Z,19.76
2022-08-26T19:08:27.252Z,19.80
2022-08-26T19:12:38.791Z,19.86
2022-08-26T19:16:52.812Z,19.95
2022-08-26T19:21:04.423Z,19.90
2022-08-26T19:25:16.056Z,19.81
2022-08-26T19:29:35.108Z,19.84
2022-08-26T19:33:46.956Z,19.89
2022-08-26T19:37:58.484Z,19.87
2022-08-26T19:42:10.019Z,19.89
2022-08-26T19:46:23.083Z,19.88
2022-08-26T19:50:35.202Z,19.85
2022-08-26T19:54:46.754Z,19.82
2022-08-26T19:58:58.341Z,19.82
2022-08-26T20:03:10.725Z,19.83
2022-08-26T20:07:27.983Z,19.78
2022-08-26T20:11:40.277Z,19.83
2022-08-26T20:15:51.815Z,19.85
2022-08-26T20:20:32.751Z,19.84
2022-08-26T20:24:46.133Z,19.83
2022-08-26T20:28:58.299Z,19.82
2022-08-26T20:33:09.820Z,19.81
2022-08-26T20:37:21.876Z,19.77
2022-08-26T20:41:33.445Z,19.70
2022-08-26T20:45:45.212Z,19.65
2022-08-26T20:49:56.785Z,19.64
2022-08-26T20:54:08.872Z,19.61
2022-08-26T20:58:23.782Z,19.54
2022-08-26T21:02:35.420Z,19.52
2022-08-26T21:06:52.483Z,19.43
2022-08-26T21:11:05.604Z,19.45
2022-08-26T21:15:19.355Z,19.38
2022-08-26T21:19:30.933Z,19.34
2022-08-26T21:23:42.485Z,19.38
2022-08-26T21:27:54.026Z,19.32
2022-08-26T22:53:42.171Z,19.10
2022-08-26T22:57:53.930Z,18.96
